»·PEaware :: N149CD KVNY-L35

N149CD :: KVNY-L35

FLIGHT INFORMATION

Flight Status: Arrived
Operator: Privately registered:
United States
More flights under this callsign
Pilot: Nathan E. (30132)
Aircraft: CIRRUS SR-22
(SR22)
More flights by this aircraft type
Origin: KVNY Van Nuys
United States
Destination: L35 Big Bear City
United States
More flights between these airports :: More routes between these airports
Route: NUAL1 PMD V386 OKACO
File this flight plan on PilotEdge
Remarks:
Altitude:
(Current/Filed)
7,000ft
Speed:
(Current/Filed)
170kts
Departed: 12-Jan-21 04:40 PM
Arrived: 12-Jan-21 05:36 PM
Distance/Time
Traveled:
81nm/0:56
Distance/Time
To Go:
Arrived

Flight Plot

Page will automatically refresh every two minutes.

Flight plan parsing failed; only flown route is shown


Map Options




Map Legend


Flown Route
Filed Route
Departure Airport
Arrival Airport
Navaid (VOR, NDB)
Fix

Horizontal Profiles

Position Reports

Time Latitude Longitude Heading Altitude Ground
Speed
12-Jan-21 16:15 34.208083 -118.491770 90 804ft 0kts
12-Jan-21 16:16 34.208083 -118.491770 90 804ft 0kts
12-Jan-21 16:17 34.208083 -118.491770 90 804ft 0kts
12-Jan-21 16:18 34.208083 -118.491770 90 804ft 0kts
12-Jan-21 16:19 34.208083 -118.491770 90 804ft 0kts
12-Jan-21 16:20 34.208083 -118.491770 90 804ft 0kts
12-Jan-21 16:21 34.208083 -118.491770 90 804ft 0kts
12-Jan-21 16:22 34.208083 -118.491770 90 804ft 0kts
12-Jan-21 16:23 34.208083 -118.491770 90 804ft 0kts
12-Jan-21 16:24 34.208083 -118.491770 90 804ft 0kts
12-Jan-21 16:25 34.208083 -118.491770 90 804ft 0kts
12-Jan-21 16:26 34.208083 -118.491770 90 804ft 0kts
12-Jan-21 16:27 34.208083 -118.491770 90 804ft 0kts
12-Jan-21 16:28 34.208083 -118.491770 90 804ft 0kts
12-Jan-21 16:29 34.208083 -118.491770 90 804ft 0kts
12-Jan-21 16:30 34.208257 -118.491422 16 804ft 11kts
12-Jan-21 16:31 34.211201 -118.491670 355 804ft 10kts
12-Jan-21 16:32 34.214440 -118.491979 355 804ft 12kts
12-Jan-21 16:33 34.217580 -118.492282 355 804ft 10kts
12-Jan-21 16:34 34.219031 -118.492192 98 804ft 0kts
12-Jan-21 16:35 34.219031 -118.492192 98 804ft 0kts
12-Jan-21 16:36 34.219031 -118.492192 98 804ft 0kts
12-Jan-21 16:37 34.219031 -118.492192 98 804ft 0kts
12-Jan-21 16:38 34.218634 -118.491209 172 804ft 8kts
12-Jan-21 16:39 34.194582 -118.489396 175 1362ft 126kts
12-Jan-21 16:40 34.165999 -118.471846 125 2648ft 120kts
12-Jan-21 16:41 34.145136 -118.438097 125 3750ft 124kts
12-Jan-21 16:42 34.125029 -118.401092 125 4729ft 129kts
12-Jan-21 16:43 34.104492 -118.362589 125 5619ft 133kts
12-Jan-21 16:44 34.089298 -118.320135 62 6441ft 142kts
12-Jan-21 16:45 34.126491 -118.312475 352 7020ft 148kts
12-Jan-21 16:46 34.171844 -118.315748 352 7009ft 165kts
12-Jan-21 16:47 34.218480 -118.319229 352 7008ft 164kts
12-Jan-21 16:48 34.264885 -118.324173 352 7017ft 159kts
12-Jan-21 16:49 34.308699 -118.332383 352 7022ft 153kts
12-Jan-21 16:50 34.351288 -118.339333 352 7033ft 152kts
12-Jan-21 16:51 34.393484 -118.345294 352 7042ft 152kts
12-Jan-21 16:52 34.426957 -118.324839 44 7503ft 134kts
12-Jan-21 16:53 34.451952 -118.291507 41 8143ft 133kts
12-Jan-21 16:54 34.477466 -118.258937 40 8787ft 133kts
12-Jan-21 16:55 34.503184 -118.226354 40 9316ft 134kts
12-Jan-21 16:56 34.529219 -118.193405 40 9860ft 135kts
12-Jan-21 16:57 34.555357 -118.160314 40 10256ft 136kts
12-Jan-21 16:58 34.581802 -118.126794 39 10664ft 136kts
12-Jan-21 16:59 34.607737 -118.093927 39 11009ft 142kts
12-Jan-21 17:00 34.630217 -118.051648 90 11000ft 167kts
12-Jan-21 17:01 34.625307 -117.993908 91 10995ft 168kts
12-Jan-21 17:02 34.620356 -117.937359 91 10993ft 168kts
12-Jan-21 17:03 34.615322 -117.880257 91 10992ft 168kts
12-Jan-21 17:04 34.610264 -117.823149 91 10993ft 171kts
12-Jan-21 17:05 34.605090 -117.765184 91 10990ft 169kts
12-Jan-21 17:06 34.599996 -117.708318 91 11056ft 166kts
12-Jan-21 17:07 34.594837 -117.651031 91 11056ft 167kts
12-Jan-21 17:08 34.589657 -117.593839 91 11055ft 167kts
12-Jan-21 17:09 34.584496 -117.537165 91 11055ft 167kts
12-Jan-21 17:10 34.579206 -117.479361 91 11055ft 167kts
12-Jan-21 17:11 34.573950 -117.422236 91 11055ft 167kts
12-Jan-21 17:12 34.568689 -117.365347 91 11055ft 167kts
12-Jan-21 17:13 34.563404 -117.308513 92 11053ft 167kts
12-Jan-21 17:14 34.558120 -117.251997 92 11045ft 168kts
12-Jan-21 17:16 34.552807 -117.195421 92 11043ft 167kts
12-Jan-21 17:17 34.547457 -117.138737 92 11046ft 167kts
12-Jan-21 17:18 34.542093 -117.082192 92 11048ft 167kts
12-Jan-21 17:19 34.536697 -117.025646 91 11049ft 166kts
12-Jan-21 17:20 34.531313 -116.969387 91 11050ft 165kts
12-Jan-21 17:21 34.525936 -116.913528 91 11052ft 165kts
12-Jan-21 17:22 34.506635 -116.862621 118 11055ft 169kts
12-Jan-21 17:23 34.480888 -116.813960 118 11055ft 171kts
12-Jan-21 17:24 34.454817 -116.764766 118 11055ft 171kts
12-Jan-21 17:25 34.428131 -116.714484 119 10584ft 183kts
12-Jan-21 17:26 34.402129 -116.665600 118 9783ft 162kts
12-Jan-21 17:27 34.371949 -116.634450 187 9440ft 142kts
12-Jan-21 17:28 34.333312 -116.642866 190 9446ft 137kts
12-Jan-21 17:29 34.295655 -116.651535 190 9442ft 136kts
12-Jan-21 17:30 34.264695 -116.670560 269 9427ft 124kts
12-Jan-21 17:31 34.264233 -116.712110 274 9126ft 117kts
12-Jan-21 17:32 34.264148 -116.752381 269 8479ft 116kts
12-Jan-21 17:32 34.264040 -116.786138 269 7885ft 118kts
12-Jan-21 17:33 34.263923 -116.819026 268 7321ft 87kts
12-Jan-21 17:34 34.263825 -116.848131 269 6769ft 80kts
12-Jan-21 17:36 34.263016 -116.856368 157 6753ft 8kts
12-Jan-21 17:36 34.263021 -116.856056 358 6753ft 0kts

Navigation Log

Ident Type
Flight plan parsing failed, navigation log unavailable